Time;durP1;ratioP1;P1;durP2;ratioP2;P2;SDS_P1;SDS_P2;PMS_P1;PMS_P2;Temp;Humidity;BMP_temperature;BMP_pressure;BME280_temperature;BME280_humidity;BME280_pressure;Samples;Min_cycle;Max_cycle;Signal;HPM_P1;HPM_P2
2021/08/08 00:00:59;;;;;;;0.33;0.33;;;12.90;92.90;;;;;;2057137;28;20206;-66
2021/08/08 00:01:59;;;;;;;0.30;0.30;;;12.90;92.90;;;;;;2056731;28;20179;-66
2021/08/08 00:03:00;;;;;;;0.60;0.60;;;12.90;92.80;;;;;;2056519;28;20663;-66
2021/08/08 00:04:01;;;;;;;0.40;0.40;;;12.90;92.60;;;;;;2057135;28;20214;-66
2021/08/08 00:05:02;;;;;;;0.53;0.33;;;12.90;92.70;;;;;;2057244;28;20262;-66
2021/08/08 00:06:03;;;;;;;0.80;0.80;;;12.80;92.70;;;;;;2056664;28;20680;-66
2021/08/08 00:07:04;;;;;;;1.20;0.53;;;12.90;92.70;;;;;;2056503;28;20179;-66
2021/08/08 00:08:05;;;;;;;0.40;0.40;;;12.80;92.80;;;;;;2056522;28;20175;-66
2021/08/08 00:09:06;;;;;;;0.30;0.30;;;12.90;92.80;;;;;;2048432;29;20490;-66
2021/08/08 00:10:10;;;;;;;0.40;0.40;;;12.90;92.80;;;;;;2056703;28;20181;-66
2021/08/08 00:11:11;;;;;;;0.57;0.57;;;12.90;92.80;;;;;;2056453;28;20438;-66
2021/08/08 00:12:12;;;;;;;0.50;0.50;;;12.90;92.80;;;;;;2048704;28;20278;-66
2021/08/08 00:13:14;;;;;;;0.50;0.50;;;12.90;92.90;;;;;;2056570;28;20265;-66
2021/08/08 00:14:15;;;;;;;0.43;0.43;;;12.90;92.90;;;;;;2056875;28;20171;-66
2021/08/08 00:15:16;;;;;;;0.50;0.50;;;12.80;93.00;;;;;;2056443;28;20575;-66
2021/08/08 00:16:17;;;;;;;0.90;0.90;;;12.80;93.00;;;;;;2056651;28;20175;-66
2021/08/08 00:17:17;;;;;;;0.50;0.50;;;12.90;92.90;;;;;;2056453;28;20624;-66
2021/08/08 00:18:18;;;;;;;0.20;0.20;;;12.80;92.90;;;;;;2056485;28;20185;-66
2021/08/08 00:19:19;;;;;;;0.75;0.73;;;12.90;92.80;;;;;;2057090;28;20191;-66
2021/08/08 00:20:20;;;;;;;2.13;0.80;;;12.90;92.80;;;;;;2056921;28;20678;-66
2021/08/08 00:21:21;;;;;;;1.57;0.90;;;12.80;92.70;;;;;;2057224;28;20716;-66
2021/08/08 00:22:22;;;;;;;0.60;0.60;;;12.80;92.80;;;;;;2057214;28;20178;-66
2021/08/08 00:23:23;;;;;;;0.40;0.40;;;12.80;92.80;;;;;;2057135;28;20689;-66
2021/08/08 00:24:23;;;;;;;0.63;0.63;;;12.80;92.80;;;;;;2057033;28;20172;-66
2021/08/08 00:25:24;;;;;;;0.70;0.67;;;12.80;92.80;;;;;;2056992;28;20518;-66
2021/08/08 00:26:25;;;;;;;0.70;0.70;;;12.80;93.00;;;;;;2057144;28;20191;-66
2021/08/08 00:27:25;;;;;;;0.30;0.30;;;12.70;92.60;;;;;;2057028;28;20198;-67
2021/08/08 00:28:26;;;;;;;0.30;0.30;;;12.80;92.20;;;;;;2057079;28;20511;-66
2021/08/08 00:29:27;;;;;;;0.47;0.47;;;12.80;92.40;;;;;;2056946;28;20182;-66
2021/08/08 00:30:28;;;;;;;0.87;0.47;;;12.80;92.40;;;;;;2057021;28;20186;-66
2021/08/08 00:31:29;;;;;;;0.50;0.50;;;12.70;92.40;;;;;;2057101;28;20215;-66
2021/08/08 00:32:29;;;;;;;0.57;0.57;;;12.70;92.20;;;;;;2057128;28;20310;-66
2021/08/08 00:33:30;;;;;;;0.23;0.23;;;12.80;92.30;;;;;;2057117;28;20183;-66
2021/08/08 00:34:31;;;;;;;3.40;0.60;;;12.70;92.50;;;;;;2057190;28;20688;-66
2021/08/08 00:35:31;;;;;;;0.37;0.37;;;12.70;92.60;;;;;;2057138;28;20183;-66
2021/08/08 00:36:34;;;;;;;0.63;0.63;;;12.60;92.70;;;;;;2056887;28;20218;-66
2021/08/08 00:37:36;;;;;;;0.50;0.50;;;12.60;92.80;;;;;;2048272;29;20681;-66
2021/08/08 00:38:37;;;;;;;0.50;0.50;;;12.60;92.80;;;;;;2041170;28;20220;-66
2021/08/08 00:39:38;;;;;;;0.20;0.20;;;12.60;92.90;;;;;;2056400;28;20183;-66
2021/08/08 00:40:39;;;;;;;1.23;0.90;;;12.60;92.80;;;;;;2056933;28;20186;-66
2021/08/08 00:41:40;;;;;;;0.43;0.43;;;12.60;92.90;;;;;;2056263;28;20183;-66
2021/08/08 00:42:42;;;;;;;0.93;0.87;;;12.60;92.90;;;;;;2048637;28;20362;-66
2021/08/08 00:43:43;;;;;;;0.93;0.65;;;12.50;92.90;;;;;;2056468;28;20816;-66
2021/08/08 00:44:43;;;;;;;0.30;0.30;;;12.50;92.90;;;;;;2057021;28;20191;-66
2021/08/08 00:45:44;;;;;;;1.23;0.50;;;12.50;93.10;;;;;;2057035;28;20178;-66
2021/08/08 00:46:45;;;;;;;0.37;0.37;;;12.50;93.00;;;;;;2056381;28;20278;-66
2021/08/08 00:47:46;;;;;;;0.63;0.63;;;12.50;93.00;;;;;;2056102;28;20186;-66
2021/08/08 00:48:47;;;;;;;0.68;0.68;;;12.50;93.00;;;;;;2056308;28;20206;-66
2021/08/08 00:49:48;;;;;;;0.37;0.37;;;12.50;93.00;;;;;;2056210;28;20664;-66
2021/08/08 00:50:49;;;;;;;0.40;0.40;;;12.50;93.10;;;;;;2056779;28;20183;-66
2021/08/08 00:51:50;;;;;;;5.70;0.97;;;12.50;92.90;;;;;;2056864;28;20921;-66
2021/08/08 00:52:51;;;;;;;0.45;0.45;;;12.50;92.60;;;;;;2056763;28;20257;-66
2021/08/08 00:53:52;;;;;;;0.50;0.50;;;12.50;92.90;;;;;;2056192;28;20179;-66
2021/08/08 00:54:53;;;;;;;0.40;0.40;;;12.50;93.10;;;;;;2056186;28;20747;-66
2021/08/08 00:55:53;;;;;;;0.43;0.40;;;12.40;93.00;;;;;;2056985;28;20179;-66
2021/08/08 00:56:54;;;;;;;0.40;0.40;;;12.50;93.20;;;;;;2056703;28;20515;-66
2021/08/08 00:57:55;;;;;;;0.40;0.40;;;12.50;93.20;;;;;;2056624;28;20178;-66
2021/08/08 00:58:56;;;;;;;0.67;0.67;;;12.50;93.00;;;;;;2056847;28;20294;-66
2021/08/08 00:59:57;;;;;;;0.32;0.32;;;12.50;93.20;;;;;;2056252;28;20563;-66
2021/08/08 01:01:03;;;;;;;0.50;0.50;;;12.40;93.30;;;;;;2056104;28;20221;-66
2021/08/08 01:02:05;;;;;;;0.60;0.60;;;12.40;93.30;;;;;;2048945;28;20682;-66
2021/08/08 01:03:11;;;;;;;1.08;0.70;;;12.40;93.30;;;;;;2056141;28;20178;-66
2021/08/08 01:04:17;;;;;;;0.90;0.70;;;12.50;93.30;;;;;;2056158;28;20182;-66
2021/08/08 01:05:25;;;;;;;0.43;0.43;;;12.50;93.30;;;;;;2048744;28;20172;-66
2021/08/08 01:06:52;;;;;;;0.32;0.32;;;12.50;93.30;;;;;;2049228;28;20257;-66
2021/08/08 01:07:58;;;;;;;2.55;0.57;;;12.40;93.40;;;;;;2056148;28;20627;-67
2021/08/08 01:09:03;;;;;;;0.40;0.40;;;12.40;93.40;;;;;;2055988;28;20318;-66
2021/08/08 01:10:06;;;;;;;0.28;0.28;;;12.50;93.30;;;;;;2056838;28;20156;-66
2021/08/08 01:11:06;;;;;;;0.47;0.47;;;12.50;92.50;;;;;;2056129;28;20187;-66
2021/08/08 01:12:08;;;;;;;0.40;0.40;;;12.40;92.90;;;;;;2056201;28;20650;-66
2021/08/08 01:13:09;;;;;;;0.22;0.22;;;12.40;93.10;;;;;;2056067;28;20210;-66
2021/08/08 01:14:11;;;;;;;1.95;0.65;;;12.40;93.30;;;;;;2056176;28;20702;-66
2021/08/08 01:15:12;;;;;;;0.20;0.20;;;12.30;93.60;;;;;;2056083;28;20183;-66
2021/08/08 01:16:16;;;;;;;0.40;0.40;;;12.30;93.70;;;;;;2048136;29;20262;-66
2021/08/08 01:17:18;;;;;;;0.40;0.40;;;12.30;93.70;;;;;;2048312;28;20190;-66
2021/08/08 01:18:19;;;;;;;0.30;0.30;;;12.30;93.60;;;;;;2056092;28;20179;-66
2021/08/08 01:19:23;;;;;;;0.38;0.38;;;12.30;93.50;;;;;;2056076;28;20179;-66
2021/08/08 01:20:27;;;;;;;0.40;0.40;;;12.30;93.70;;;;;;2048461;28;20707;-66
2021/08/08 01:21:32;;;;;;;0.30;0.30;;;12.30;93.60;;;;;;2048391;28;20270;-66
2021/08/08 01:22:34;;;;;;;0.47;0.47;;;12.30;93.20;;;;;;2056190;28;20174;-66
2021/08/08 01:23:37;;;;;;;0.20;0.20;;;12.40;92.80;;;;;;2056042;28;20187;-66
2021/08/08 01:24:38;;;;;;;0.30;0.30;;;12.40;92.80;;;;;;2055928;28;20218;-66
2021/08/08 01:25:39;;;;;;;2.10;0.83;;;12.40;92.80;;;;;;2047919;29;20178;-66
2021/08/08 01:26:42;;;;;;;1.00;0.40;;;12.40;92.90;;;;;;2048224;29;20431;-66
2021/08/08 01:27:43;;;;;;;0.40;0.40;;;12.40;93.00;;;;;;2047848;29;20612;-66
2021/08/08 01:28:43;;;;;;;0.23;0.23;;;12.40;92.90;;;;;;2048003;29;20253;-66
2021/08/08 01:29:44;;;;;;;2.77;0.37;;;12.40;92.20;;;;;;2048001;29;20279;-66
2021/08/08 01:30:45;;;;;;;0.53;0.40;;;12.40;92.40;;;;;;2047899;29;20243;-66
2021/08/08 01:31:54;;;;;;;0.30;0.30;;;12.50;92.50;;;;;;2048670;28;20427;-66
2021/08/08 01:33:09;;;;;;;0.32;0.32;;;12.50;92.60;;;;;;2048858;28;20179;-66
2021/08/08 01:34:10;;;;;;;0.85;0.85;;;12.40;92.70;;;;;;2048636;28;20213;-66
2021/08/08 01:35:11;;;;;;;0.30;0.30;;;12.50;92.40;;;;;;2048763;28;20180;-66
2021/08/08 01:36:12;;;;;;;1.15;0.82;;;12.50;92.60;;;;;;2047728;29;20190;-66
2021/08/08 01:37:20;;;;;;;0.20;0.20;;;12.50;92.70;;;;;;2040021;29;20177;-66
2021/08/08 01:38:21;;;;;;;0.77;0.77;;;12.50;92.70;;;;;;2048018;29;20171;-66
2021/08/08 01:39:23;;;;;;;1.40;0.83;;;12.60;92.80;;;;;;2047974;29;20674;-66
2021/08/08 01:40:57;;;;;;;0.30;0.30;;;12.60;92.80;;;;;;2040220;29;20181;-66
2021/08/08 01:42:04;;;;;;;0.80;0.20;;;12.60;92.80;;;;;;2042837;29;20744;-66
2021/08/08 01:43:10;;;;;;;0.30;0.30;;;12.60;92.90;;;;;;2048715;28;20705;-66
2021/08/08 01:44:12;;;;;;;0.38;0.38;;;12.60;92.90;;;;;;2047593;29;20172;-66
2021/08/08 01:45:14;;;;;;;0.57;0.57;;;12.60;92.90;;;;;;2047995;29;20179;-66
2021/08/08 01:46:15;;;;;;;0.57;0.57;;;12.60;92.90;;;;;;2048631;28;20208;-67
2021/08/08 01:47:23;;;;;;;0.32;0.20;;;12.60;93.00;;;;;;2047954;29;20179;-66
2021/08/08 01:48:24;;;;;;;0.60;0.57;;;12.60;93.10;;;;;;2041202;29;20587;-66
2021/08/08 01:49:29;;;;;;;0.83;0.83;;;12.60;93.00;;;;;;2048087;29;20187;-66
2021/08/08 01:50:31;;;;;;;0.30;0.30;;;12.60;93.00;;;;;;2056233;28;20245;-67
2021/08/08 01:51:32;;;;;;;0.30;0.30;;;12.70;93.00;;;;;;2055780;28;20184;-66
2021/08/08 01:52:35;;;;;;;0.30;0.30;;;12.70;93.00;;;;;;2048259;29;20605;-66
2021/08/08 01:53:36;;;;;;;0.43;0.43;;;12.60;93.10;;;;;;2048081;29;20180;-66
2021/08/08 01:54:38;;;;;;;0.70;0.50;;;12.70;93.10;;;;;;2048108;29;20238;-66
2021/08/08 01:55:38;;;;;;;0.28;0.22;;;12.70;93.00;;;;;;2048185;28;20561;-66
2021/08/08 01:56:40;;;;;;;0.73;0.50;;;12.70;93.00;;;;;;2056175;28;20198;-66
2021/08/08 01:57:42;;;;;;;0.82;0.82;;;12.70;93.00;;;;;;2047886;29;20184;-66
2021/08/08 01:58:43;;;;;;;0.25;0.25;;;12.70;93.00;;;;;;2047840;28;20694;-66
2021/08/08 01:59:43;;;;;;;0.40;0.40;;;12.70;93.00;;;;;;2047989;29;20190;-66
2021/08/08 02:00:49;;;;;;;1.30;0.63;;;12.70;93.00;;;;;;2048162;29;20187;-66
2021/08/08 02:01:49;;;;;;;0.93;0.57;;;12.70;93.10;;;;;;2055586;28;20179;-66
2021/08/08 02:02:56;;;;;;;0.30;0.30;;;12.60;93.10;;;;;;2050151;28;20220;-66
2021/08/08 02:03:56;;;;;;;0.30;0.30;;;12.60;93.10;;;;;;2050023;28;20180;-66
2021/08/08 02:04:57;;;;;;;1.30;0.50;;;12.60;93.10;;;;;;2050340;28;20231;-66
2021/08/08 02:05:58;;;;;;;0.60;0.60;;;12.60;93.10;;;;;;2050133;28;20612;-66
2021/08/08 02:06:59;;;;;;;0.37;0.30;;;12.50;93.10;;;;;;2050086;29;20179;-66
2021/08/08 02:07:59;;;;;;;0.30;0.30;;;12.40;93.20;;;;;;2050068;28;20176;-66
2021/08/08 02:09:00;;;;;;;0.30;0.30;;;12.40;93.30;;;;;;2049976;28;20638;-66
2021/08/08 02:10:01;;;;;;;0.23;0.23;;;12.40;93.50;;;;;;2050112;28;20191;-66
2021/08/08 02:11:03;;;;;;;0.30;0.30;;;12.30;93.50;;;;;;2049473;29;20183;-66
2021/08/08 02:12:05;;;;;;;0.60;0.60;;;12.30;93.50;;;;;;2049754;28;20186;-66
2021/08/08 02:13:05;;;;;;;0.50;0.50;;;12.30;93.50;;;;;;2049564;29;20187;-66
2021/08/08 02:14:06;;;;;;;1.80;0.73;;;12.30;93.40;;;;;;2049398;29;20687;-66
2021/08/08 02:15:11;;;;;;;0.40;0.40;;;12.30;93.40;;;;;;2050237;28;20187;-66
2021/08/08 02:16:12;;;;;;;0.35;0.35;;;12.20;93.40;;;;;;2049325;29;20192;-66
2021/08/08 02:17:12;;;;;;;0.30;0.30;;;12.30;93.40;;;;;;2049407;29;20183;-66
2021/08/08 02:18:13;;;;;;;0.30;0.30;;;12.20;93.30;;;;;;2050061;28;20267;-66
2021/08/08 02:19:14;;;;;;;0.77;0.60;;;12.20;93.30;;;;;;2049942;28;20759;-66
2021/08/08 02:20:17;;;;;;;0.30;0.30;;;12.20;93.30;;;;;;2049863;28;20199;-67
2021/08/08 02:21:18;;;;;;;0.20;0.20;;;12.10;93.30;;;;;;2050016;28;20210;-66
2021/08/08 02:22:19;;;;;;;0.40;0.40;;;12.10;93.40;;;;;;2049506;29;20176;-66
2021/08/08 02:23:20;;;;;;;0.57;0.30;;;12.00;93.60;;;;;;2041655;29;20448;-66
2021/08/08 02:24:20;;;;;;;0.60;0.60;;;12.00;93.80;;;;;;2041596;29;20594;-66
2021/08/08 02:25:21;;;;;;;0.30;0.30;;;12.00;93.80;;;;;;2049391;29;20191;-66
2021/08/08 02:26:22;;;;;;;0.53;0.53;;;12.00;94.00;;;;;;2050033;28;20565;-66
2021/08/08 02:27:23;;;;;;;0.60;0.60;;;11.90;94.20;;;;;;2049344;29;20188;-66
2021/08/08 02:28:24;;;;;;;3.40;0.67;;;11.80;94.30;;;;;;2049308;29;20868;-66
2021/08/08 02:29:24;;;;;;;0.10;0.10;;;11.80;94.40;;;;;;2050010;28;20706;-66
2021/08/08 02:30:25;;;;;;;0.20;0.20;;;11.80;94.40;;;;;;2049106;29;20311;-66
2021/08/08 02:31:34;;;;;;;0.40;0.40;;;11.90;94.50;;;;;;2049479;29;20609;-66
2021/08/08 02:32:36;;;;;;;0.20;0.20;;;11.90;95.00;;;;;;2050119;28;20234;-66
2021/08/08 02:33:36;;;;;;;0.30;0.30;;;11.90;94.40;;;;;;2050251;28;20191;-66
2021/08/08 02:34:37;;;;;;;0.37;0.37;;;12.00;94.30;;;;;;2050108;28;20690;-66
2021/08/08 02:35:38;;;;;;;0.27;0.27;;;12.00;94.30;;;;;;2049943;28;20427;-66
2021/08/08 02:36:40;;;;;;;0.50;0.50;;;12.00;94.20;;;;;;2049960;29;20184;-66
2021/08/08 02:37:40;;;;;;;0.93;0.93;;;12.10;94.10;;;;;;2049919;28;20231;-66
2021/08/08 02:38:41;;;;;;;0.40;0.40;;;12.10;94.10;;;;;;2049919;28;20212;-66
2021/08/08 02:39:42;;;;;;;0.30;0.30;;;12.00;94.10;;;;;;2050101;28;20475;-66
2021/08/08 02:40:42;;;;;;;0.40;0.40;;;12.00;93.90;;;;;;2049830;29;20192;-66
2021/08/08 02:41:43;;;;;;;0.40;0.40;;;12.00;93.90;;;;;;2049800;29;20184;-66
2021/08/08 02:42:44;;;;;;;0.23;0.23;;;12.00;93.80;;;;;;2049509;29;20628;-66
2021/08/08 02:43:44;;;;;;;0.33;0.33;;;12.00;93.80;;;;;;2049600;29;20284;-66
2021/08/08 02:44:45;;;;;;;0.23;0.23;;;11.90;93.70;;;;;;2050070;28;20180;-66
2021/08/08 02:45:49;;;;;;;0.20;0.20;;;11.90;93.70;;;;;;2049598;29;20636;-66
2021/08/08 02:46:50;;;;;;;0.22;0.22;;;11.90;93.80;;;;;;2049141;29;20184;-69
2021/08/08 02:47:51;;;;;;;0.20;0.20;;;11.80;93.80;;;;;;2050649;28;20183;-66
2021/08/08 02:48:51;;;;;;;0.47;0.47;;;11.80;93.70;;;;;;2049454;28;20625;-66
2021/08/08 02:49:52;;;;;;;0.30;0.30;;;11.80;93.90;;;;;;2049458;29;20180;-66
2021/08/08 02:50:53;;;;;;;0.47;0.47;;;11.70;93.80;;;;;;2052738;28;20187;-67
2021/08/08 02:51:56;;;;;;;0.13;0.13;;;11.70;93.90;;;;;;2057458;28;20546;-66
2021/08/08 02:52:56;;;;;;;0.40;0.40;;;11.60;94.00;;;;;;2058134;28;20179;-67
2021/08/08 02:53:57;;;;;;;2.63;0.90;;;11.60;94.00;;;;;;2058172;28;20175;-66
2021/08/08 02:54:58;;;;;;;0.37;0.37;;;11.60;94.10;;;;;;2057337;28;20187;-66
2021/08/08 02:55:58;;;;;;;0.30;0.30;;;11.60;94.10;;;;;;2057320;28;20294;-66
2021/08/08 02:56:59;;;;;;;0.30;0.30;;;11.70;94.10;;;;;;2057781;28;20183;-67
2021/08/08 02:58:00;;;;;;;0.50;0.50;;;11.60;94.10;;;;;;2057753;28;20175;-69
2021/08/08 02:59:01;;;;;;;0.30;0.30;;;11.60;94.10;;;;;;2057691;28;20301;-66
2021/08/08 03:00:03;;;;;;;0.20;0.20;;;11.60;94.20;;;;;;2057941;28;20249;-66
2021/08/08 03:01:06;;;;;;;0.35;0.35;;;11.60;94.20;;;;;;2057196;28;20210;-66
2021/08/08 03:02:07;;;;;;;0.47;0.47;;;11.60;94.30;;;;;;2057265;28;20179;-67
2021/08/08 03:03:07;;;;;;;0.13;0.13;;;11.60;94.30;;;;;;2057561;28;20171;-65
2021/08/08 03:04:08;;;;;;;0.47;0.47;;;11.60;94.30;;;;;;2057813;28;20230;-66
2021/08/08 03:05:10;;;;;;;0.20;0.20;;;11.60;94.30;;;;;;2057794;28;20198;-66
2021/08/08 03:06:15;;;;;;;2.63;0.43;;;11.60;94.40;;;;;;2057616;28;20294;-66
2021/08/08 03:07:16;;;;;;;0.30;0.25;;;11.70;94.40;;;;;;2057039;28;20199;-66
2021/08/08 03:08:17;;;;;;;0.20;0.20;;;11.70;94.30;;;;;;2057121;28;20210;-66
2021/08/08 03:09:17;;;;;;;0.35;0.32;;;11.70;94.30;;;;;;2057539;28;20380;-66
2021/08/08 03:10:18;;;;;;;0.10;0.10;;;11.70;94.20;;;;;;2057970;28;20520;-67
2021/08/08 03:11:19;;;;;;;0.43;0.43;;;11.70;94.20;;;;;;2057832;28;20191;-66
2021/08/08 03:12:20;;;;;;;0.40;0.40;;;11.70;94.10;;;;;;2057705;28;20190;-66
2021/08/08 03:13:20;;;;;;;1.40;0.50;;;11.60;94.00;;;;;;2057719;28;20218;-66
2021/08/08 03:14:21;;;;;;;0.27;0.27;;;11.70;94.10;;;;;;2057607;28;20591;-66
2021/08/08 03:15:22;;;;;;;0.67;0.67;;;11.70;94.10;;;;;;2057813;28;20183;-66
2021/08/08 03:16:22;;;;;;;0.20;0.20;;;11.70;94.20;;;;;;2057888;28;20245;-66
2021/08/08 03:17:23;;;;;;;0.50;0.50;;;11.70;94.10;;;;;;2057546;28;20198;-66
2021/08/08 03:18:24;;;;;;;0.50;0.50;;;11.70;94.10;;;;;;2057774;28;20207;-66
2021/08/08 03:19:24;;;;;;;0.37;0.37;;;11.70;94.10;;;;;;2057508;28;20401;-66
2021/08/08 03:20:25;;;;;;;0.23;0.17;;;11.70;94.10;;;;;;2057711;28;20209;-66
2021/08/08 03:21:26;;;;;;;0.20;0.20;;;11.70;94.10;;;;;;2057682;28;20215;-66
2021/08/08 03:22:26;;;;;;;0.30;0.30;;;11.70;94.30;;;;;;2057705;28;20175;-66
2021/08/08 03:23:27;;;;;;;0.23;0.23;;;11.60;94.60;;;;;;2057699;28;20179;-66
2021/08/08 03:24:28;;;;;;;0.73;0.73;;;11.50;94.80;;;;;;2057597;28;20183;-66
2021/08/08 03:25:28;;;;;;;0.50;0.50;;;11.50;94.80;;;;;;2057458;28;20678;-66
2021/08/08 03:26:31;;;;;;;0.37;0.37;;;11.60;94.90;;;;;;2058922;28;20202;-66
2021/08/08 03:27:32;;;;;;;0.52;0.52;;;11.60;94.80;;;;;;2058405;28;20654;-66
2021/08/08 03:28:33;;;;;;;0.67;0.53;;;11.60;94.80;;;;;;2057637;28;20203;-67
2021/08/08 03:29:34;;;;;;;0.50;0.40;;;11.60;94.80;;;;;;2057670;28;20187;-70
2021/08/08 03:30:35;;;;;;;0.20;0.20;;;11.60;94.60;;;;;;2057400;28;20262;-66
2021/08/08 03:31:37;;;;;;;0.30;0.30;;;11.70;94.50;;;;;;2057757;28;20539;-66
2021/08/08 03:32:37;;;;;;;0.50;0.50;;;11.70;94.30;;;;;;2057609;28;20214;-67
2021/08/08 03:33:38;;;;;;;0.63;0.63;;;11.80;94.30;;;;;;2057741;28;20554;-66
2021/08/08 03:34:39;;;;;;;0.30;0.30;;;11.80;94.30;;;;;;2057591;28;20194;-66
2021/08/08 03:35:39;;;;;;;0.47;0.47;;;11.70;94.30;;;;;;2057784;28;20250;-66
2021/08/08 03:36:40;;;;;;;0.23;0.23;;;11.70;94.30;;;;;;2057384;28;20269;-69
2021/08/08 03:37:41;;;;;;;0.87;0.40;;;11.70;94.30;;;;;;2057494;28;20230;-66
2021/08/08 03:38:41;;;;;;;0.20;0.20;;;11.70;94.20;;;;;;2057518;28;20695;-66
2021/08/08 03:39:42;;;;;;;0.50;0.50;;;11.60;94.30;;;;;;2057438;28;20189;-67
2021/08/08 03:40:43;;;;;;;0.17;0.17;;;11.50;94.40;;;;;;2057472;28;20206;-67
2021/08/08 03:41:44;;;;;;;0.70;0.63;;;11.50;94.60;;;;;;2057414;28;20183;-67
2021/08/08 03:42:44;;;;;;;0.30;0.30;;;11.30;94.80;;;;;;2057417;28;20654;-65
2021/08/08 03:43:45;;;;;;;1.60;0.47;;;11.20;95.00;;;;;;2057540;28;20186;-66
2021/08/08 03:44:46;;;;;;;0.40;0.30;;;11.10;95.10;;;;;;2057448;28;20179;-65
2021/08/08 03:45:46;;;;;;;0.33;0.33;;;11.10;95.30;;;;;;2056909;28;20183;-66
2021/08/08 03:46:48;;;;;;;0.23;0.23;;;11.00;95.40;;;;;;2056783;28;20179;-66
2021/08/08 03:47:48;;;;;;;0.30;0.30;;;11.00;95.50;;;;;;2056747;28;20175;-66
2021/08/08 03:48:49;;;;;;;0.20;0.20;;;11.00;95.50;;;;;;2056766;28;20202;-65
2021/08/08 03:49:50;;;;;;;0.17;0.17;;;11.00;95.40;;;;;;2057417;28;20458;-65
2021/08/08 03:50:51;;;;;;;0.20;0.20;;;11.00;95.30;;;;;;2057444;28;20270;-67
2021/08/08 03:51:51;;;;;;;0.30;0.30;;;11.00;95.20;;;;;;2057448;28;20529;-65
2021/08/08 03:52:52;;;;;;;0.20;0.20;;;11.00;95.10;;;;;;2057095;28;20739;-66
2021/08/08 03:53:53;;;;;;;0.20;0.20;;;11.10;95.00;;;;;;2057323;28;20198;-66
2021/08/08 03:54:53;;;;;;;0.50;0.50;;;11.10;94.70;;;;;;2057262;28;20186;-66
2021/08/08 03:55:54;;;;;;;0.30;0.30;;;11.10;94.70;;;;;;2057462;28;20203;-65
2021/08/08 03:56:55;;;;;;;0.33;0.33;;;11.10;94.70;;;;;;2057412;28;20226;-66
2021/08/08 03:57:57;;;;;;;0.40;0.20;;;11.10;94.70;;;;;;2057176;28;20191;-66
2021/08/08 03:58:57;;;;;;;0.47;0.47;;;11.10;94.70;;;;;;2056670;28;20207;-66
2021/08/08 03:59:58;;;;;;;0.37;0.37;;;11.10;94.70;;;;;;2056753;28;20181;-66
2021/08/08 04:01:01;;;;;;;0.47;0.47;;;11.20;94.80;;;;;;2057534;28;20546;-67
2021/08/08 04:02:01;;;;;;;0.45;0.45;;;11.20;94.80;;;;;;2056917;28;20621;-68
2021/08/08 04:03:02;;;;;;;0.93;0.40;;;11.30;94.70;;;;;;2048752;29;20172;-68
2021/08/08 04:04:03;;;;;;;0.30;0.30;;;11.20;94.70;;;;;;2056596;28;20218;-67
2021/08/08 04:05:04;;;;;;;0.50;0.50;;;11.30;94.70;;;;;;2057354;28;20182;-68
2021/08/08 04:06:05;;;;;;;0.32;0.32;;;11.30;94.50;;;;;;2057202;28;20191;-68
2021/08/08 04:07:06;;;;;;;1.17;0.83;;;11.30;94.40;;;;;;2057150;28;20179;-67
2021/08/08 04:08:07;;;;;;;0.30;0.30;;;11.30;94.40;;;;;;2056979;28;20590;-67
2021/08/08 04:09:08;;;;;;;0.75;0.32;;;11.40;94.40;;;;;;2056906;28;20176;-67
2021/08/08 04:10:09;;;;;;;0.17;0.17;;;11.40;94.30;;;;;;2056468;28;20179;-67
2021/08/08 04:11:12;;;;;;;0.20;0.20;;;11.40;94.30;;;;;;2056467;28;20650;-67
2021/08/08 04:12:13;;;;;;;0.80;0.40;;;11.40;94.30;;;;;;2048395;28;20755;-67
2021/08/08 04:13:14;;;;;;;0.40;0.40;;;11.40;94.20;;;;;;2048664;28;20183;-66
2021/08/08 04:14:15;;;;;;;0.57;0.50;;;11.40;94.20;;;;;;2056882;28;20646;-65
2021/08/08 04:15:15;;;;;;;0.30;0.30;;;11.40;94.20;;;;;;2056460;28;20175;-65
2021/08/08 04:16:16;;;;;;;0.77;0.53;;;11.40;94.10;;;;;;2056408;28;20179;-65
2021/08/08 04:17:17;;;;;;;0.27;0.27;;;11.40;94.10;;;;;;2056972;28;20266;-67
2021/08/08 04:18:17;;;;;;;0.20;0.20;;;11.30;94.10;;;;;;2056999;28;20653;-68
2021/08/08 04:19:18;;;;;;;0.30;0.30;;;11.30;94.10;;;;;;2057031;28;20650;-67
2021/08/08 04:20:19;;;;;;;1.10;0.43;;;11.20;94.20;;;;;;2056140;28;20195;-68
2021/08/08 04:21:19;;;;;;;0.82;0.30;;;11.20;94.20;;;;;;2048481;29;20208;-68
2021/08/08 04:22:20;;;;;;;0.43;0.43;;;11.20;94.40;;;;;;2056433;28;20179;-67
2021/08/08 04:23:22;;;;;;;1.30;0.60;;;11.20;94.20;;;;;;2057103;28;20175;-67
2021/08/08 04:24:22;;;;;;;0.40;0.40;;;11.10;94.10;;;;;;2056977;28;20179;-67
2021/08/08 04:25:23;;;;;;;0.53;0.40;;;11.10;94.20;;;;;;2055687;28;20183;-68
2021/08/08 04:26:24;;;;;;;0.20;0.20;;;11.00;94.30;;;;;;2056404;28;20195;-67
2021/08/08 04:27:24;;;;;;;0.20;0.20;;;10.90;94.50;;;;;;2056906;28;20620;-67
2021/08/08 04:28:25;;;;;;;0.50;0.50;;;10.90;94.70;;;;;;2056935;28;20233;-67
2021/08/08 04:29:26;;;;;;;0.20;0.20;;;10.80;94.70;;;;;;2056420;28;20179;-67
2021/08/08 04:30:27;;;;;;;0.40;0.40;;;10.80;94.70;;;;;;2056500;28;20560;-67
2021/08/08 04:31:27;;;;;;;0.33;0.33;;;10.90;94.60;;;;;;2056963;28;20489;-68
2021/08/08 04:32:28;;;;;;;0.30;0.30;;;10.90;94.50;;;;;;2056986;28;20983;-67
2021/08/08 04:33:29;;;;;;;3.97;0.47;;;10.80;94.40;;;;;;2056988;28;20233;-67
2021/08/08 04:34:31;;;;;;;0.50;0.50;;;10.80;94.40;;;;;;2056923;28;20190;-67
2021/08/08 04:35:33;;;;;;;0.47;0.47;;;10.80;94.40;;;;;;2056950;28;20271;-65
2021/08/08 04:36:33;;;;;;;2.95;0.40;;;10.80;94.30;;;;;;2056702;28;20187;-66
2021/08/08 04:37:34;;;;;;;0.60;0.60;;;10.80;94.30;;;;;;2056842;28;20179;-67
2021/08/08 04:38:35;;;;;;;0.10;0.10;;;10.80;94.40;;;;;;2056924;28;20207;-67
2021/08/08 04:39:36;;;;;;;0.10;0.10;;;10.80;94.20;;;;;;2056924;28;20176;-67
2021/08/08 04:40:36;;;;;;;0.30;0.30;;;10.90;94.20;;;;;;2056415;28;20692;-67
2021/08/08 04:41:37;;;;;;;0.20;0.20;;;10.80;94.30;;;;;;2048098;29;20208;-67
2021/08/08 04:42:38;;;;;;;0.20;0.20;;;10.80;94.40;;;;;;2056318;28;20534;-65
2021/08/08 04:43:39;;;;;;;0.40;0.40;;;10.80;94.70;;;;;;2056292;28;20183;-67
2021/08/08 04:44:40;;;;;;;0.53;0.53;;;10.80;94.70;;;;;;2048494;28;20180;-67
2021/08/08 04:45:40;;;;;;;0.20;0.20;;;10.90;94.70;;;;;;2056304;28;20793;-68
2021/08/08 04:46:41;;;;;;;0.57;0.57;;;10.90;94.70;;;;;;2056943;28;20187;-67
2021/08/08 04:47:42;;;;;;;0.30;0.30;;;10.90;94.80;;;;;;2056580;28;20790;-67
2021/08/08 04:48:42;;;;;;;0.40;0.40;;;11.00;94.70;;;;;;2056827;28;20199;-65
2021/08/08 04:49:43;;;;;;;5.70;0.93;;;11.00;94.60;;;;;;2056726;28;20187;-65
2021/08/08 04:50:44;;;;;;;0.20;0.20;;;11.00;94.50;;;;;;2056852;28;20176;-68
2021/08/08 04:51:44;;;;;;;0.40;0.40;;;11.10;94.40;;;;;;2056814;28;20631;-66
2021/08/08 04:52:46;;;;;;;16.57;0.80;;;11.10;94.40;;;;;;2055994;28;20352;-67
2021/08/08 04:53:47;;;;;;;0.10;0.10;;;11.10;94.40;;;;;;2056242;28;20190;-67
2021/08/08 04:54:47;;;;;;;3.63;1.53;;;11.20;94.30;;;;;;2056866;28;20554;-67
2021/08/08 04:55:48;;;;;;;0.60;0.60;;;11.20;94.20;;;;;;2051760;28;20192;-68
2021/08/08 04:56:49;;;;;;;0.50;0.50;;;11.20;94.30;;;;;;2048507;28;20202;-67
2021/08/08 04:57:50;;;;;;;0.60;0.53;;;11.20;94.30;;;;;;2048757;28;20180;-67
2021/08/08 04:58:50;;;;;;;0.47;0.47;;;11.20;94.30;;;;;;2048427;29;20307;-68
2021/08/08 04:59:51;;;;;;;0.30;0.30;;;11.30;94.20;;;;;;2048545;28;20295;-66
2021/08/08 05:00:52;;;;;;;0.50;0.50;;;11.30;94.20;;;;;;2048776;28;20182;-66
2021/08/08 05:01:52;;;;;;;0.67;0.57;;;11.30;94.20;;;;;;2048673;29;20187;-65
2021/08/08 05:02:53;;;;;;;0.33;0.33;;;11.30;94.30;;;;;;2048713;29;20183;-67
2021/08/08 05:03:53;;;;;;;0.83;0.83;;;11.30;94.30;;;;;;2047905;29;20357;-67
2021/08/08 05:04:54;;;;;;;0.97;0.57;;;11.30;94.30;;;;;;2048126;29;20506;-68
2021/08/08 05:05:55;;;;;;;0.30;0.30;;;11.30;94.20;;;;;;2048670;28;20191;-68
2021/08/08 05:06:56;;;;;;;1.83;0.90;;;11.20;94.30;;;;;;2048577;29;20183;-67
2021/08/08 05:07:56;;;;;;;0.40;0.40;;;11.20;94.30;;;;;;2048534;29;20180;-67
2021/08/08 05:08:57;;;;;;;0.33;0.33;;;11.20;94.20;;;;;;2048481;29;20290;-67
2021/08/08 05:09:58;;;;;;;0.30;0.30;;;11.20;94.10;;;;;;2048437;28;20458;-67
2021/08/08 05:10:59;;;;;;;0.40;0.40;;;11.20;94.30;;;;;;2048768;28;20171;-67
2021/08/08 05:11:59;;;;;;;0.57;0.57;;;11.10;94.20;;;;;;2048582;29;20222;-68
2021/08/08 05:13:00;;;;;;;0.40;0.40;;;11.20;94.30;;;;;;2048604;29;20308;-68
2021/08/08 05:14:01;;;;;;;0.40;0.40;;;11.20;94.20;;;;;;2048696;28;20183;-68
2021/08/08 05:15:04;;;;;;;0.40;0.40;;;11.20;94.20;;;;;;2047745;29;20670;-66
2021/08/08 05:16:04;;;;;;;0.22;0.22;;;11.20;94.10;;;;;;2040263;29;20191;-65
2021/08/08 05:17:06;;;;;;;0.30;0.30;;;11.20;94.10;;;;;;2047850;29;20211;-66
2021/08/08 05:18:07;;;;;;;0.22;0.22;;;11.20;94.20;;;;;;2048528;28;20550;-65
2021/08/08 05:19:08;;;;;;;0.30;0.30;;;11.20;94.10;;;;;;2048518;28;20176;-67
2021/08/08 05:20:10;;;;;;;0.20;0.20;;;11.20;94.20;;;;;;2048183;28;20188;-68
2021/08/08 05:21:10;;;;;;;0.57;0.57;;;11.20;94.20;;;;;;2047550;29;20219;-67